TimeCDT,TemperatureF,Dew PointF,Humidity,Sea Level PressureIn,VisibilityMPH,Wind Direction,Wind SpeedMPH,Gust SpeedMPH,PrecipitationIn,Events,Conditions,WindDirDegrees,DateUTC
12:45 AM,63,54,64,29.65,6,SE,6.7,,,,Scattered Clouds,140,2012-10-02 05:45:00
12:45 AM,57.2,42.8,59,30.24,7.0,East,6.9,-,N/A,,Scattered Clouds,100,2012-10-02 05:45:00
1:45 AM,57.2,42.8,59,30.23,7.0,ENE,8.1,-,N/A,,Scattered Clouds,70,2012-10-02 06:45:00
2:45 AM,59.0,44.6,59,30.24,7.0,ENE,9.2,-,N/A,,Scattered Clouds,60,2012-10-02 07:45:00
3:40 AM,61,55,73,29.73,6,East,4.5,,,,Scattered Clouds,90,2012-10-02 08:40:00
3:45 AM,57.2,44.6,63,30.25,7.0,ENE,9.2,-,N/A,,Scattered Clouds,60,2012-10-02 08:45:00
4:45 AM,53.6,44.6,72,30.24,7.0,East,6.9,-,N/A,,Scattered Clouds,100,2012-10-02 09:45:00
5:45 AM,53.6,44.6,72,30.25,7.0,NE,8.1,-,N/A,,Scattered Clouds,50,2012-10-02 10:45:00
6:45 AM,51.8,44.6,76,30.26,7.0,NE,4.6,-,N/A,,Scattered Clouds,40,2012-10-02 11:45:00
6:50 AM,56,47,64,29.84,6,East,4.5,,,,Scattered Clouds,90,2012-10-02 11:50:00
7:45 AM,53.6,44.6,72,30.27,7.0,NNE,5.8,-,N/A,,Mostly Cloudy,30,2012-10-02 12:45:00
8:45 AM,59.0,50.0,72,30.28,7.0,ENE,6.9,-,N/A,,Scattered Clouds,60,2012-10-02 13:45:00
9:45 AM,62.6,48.2,59,30.29,7.0,East,9.2,-,N/A,,Scattered Clouds,90,2012-10-02 14:45:00
9:50 AM,64,48,46,29.92,6,East,6.7,,,,Scattered Clouds,90,2012-10-02 14:50:00
10:45 AM,64.4,48.2,56,30.32,7.0,East,11.5,-,N/A,,Scattered Clouds,100,2012-10-02 15:45:00
11:45 AM,69.8,53.6,56,30.31,7.0,ENE,6.9,-,N/A,,Mostly Cloudy,70,2012-10-02 16:45:00
12:45 PM,71.6,53.6,53,30.31,7.0,East,11.5,-,N/A,,Scattered Clouds,80,2012-10-02 17:45:00
1:45 PM,73.4,55.4,53,30.28,8.0,NE,13.8,-,N/A,,Scattered Clouds,40,2012-10-02 18:45:00
2:45 PM,73.4,55.4,53,30.24,8.0,NNE,11.5,-,N/A,,Mostly Cloudy,20,2012-10-02 19:45:00
3:45 PM,75.2,57.2,53,30.24,7.0,NE,9.2,-,N/A,,Mostly Cloudy,40,2012-10-02 20:45:00
3:50 PM,80,36,12,29.76,6,East,4.5,,,,Scattered Clouds,90,2012-10-02 20:50:00
4:45 PM,73.4,55.4,53,30.22,8.0,Calm,Calm,-,N/A,,Mostly Cloudy,0,2012-10-02 21:45:00
5:45 PM,73.4,55.4,53,30.22,7.0,ESE,9.2,-,N/A,,Mostly Cloudy,120,2012-10-02 22:45:00
6:45 PM,71.6,55.4,57,30.22,7.0,NE,11.5,-,N/A,,Mostly Cloudy,40,2012-10-02 23:45:00
6:55 PM,74,41,19,29.71,6,East,8.9,,,,Scattered Clouds,90,2012-10-02 23:55:00
7:45 PM,68.0,57.2,68,30.25,7.0,ENE,6.9,-,N/A,,Mostly Cloudy,70,2012-10-03 00:45:00
8:45 PM,62.6,53.6,72,30.23,7.0,ENE,11.5,-,N/A,,Scattered Clouds,60,2012-10-03 01:45:00
9:45 PM,60.8,46.4,59,30.30,7.0,ENE,8.1,-,N/A,,Scattered Clouds,70,2012-10-03 02:45:00
9:55 PM,64,44,37,29.76,6,SE,8.9,,,,Scattered Clouds,140,2012-10-03 02:55:00
10:45 PM,59.0,44.6,59,30.32,7.0,NE,6.9,-,N/A,,Scattered Clouds,50,2012-10-03 03:45:00
11:45 PM,53.6,44.6,72,30.34,7.0,SE,5.8,-,N/A,,Scattered Clouds,130,2012-10-03 04:45:00